createdAt,value
2024-05-09T00:00:47.569Z,5.99
2024-05-09T00:03:35.701Z,5.96
2024-05-09T00:06:04.382Z,5.91
2024-05-09T00:08:32.726Z,5.80
2024-05-09T00:11:00.854Z,5.80
2024-05-09T00:13:28.799Z,5.69
2024-05-09T00:15:56.693Z,5.76
2024-05-09T00:18:24.852Z,5.73
2024-05-09T00:20:52.946Z,5.67
2024-05-09T00:23:20.987Z,5.63
2024-05-09T00:25:49.187Z,5.61
2024-05-09T00:28:17.094Z,5.58
2024-05-09T00:30:44.979Z,5.56
2024-05-09T00:33:13.132Z,5.52
2024-05-09T00:35:41.615Z,5.49
2024-05-09T00:38:10.387Z,5.47
2024-05-09T00:40:43.406Z,5.47
2024-05-09T00:43:12.942Z,5.46
2024-05-09T00:45:42.930Z,5.43
2024-05-09T00:48:14.949Z,5.39
2024-05-09T00:50:46.532Z,5.35
2024-05-09T00:53:18.557Z,5.31
2024-05-09T00:55:47.450Z,5.27
2024-05-09T00:58:17.912Z,5.26
2024-05-09T01:00:46.386Z,5.23
2024-05-09T01:03:14.699Z,5.21
2024-05-09T01:05:43.994Z,5.18
2024-05-09T01:08:12.654Z,5.13
2024-05-09T01:10:43.919Z,5.13
2024-05-09T01:13:13.267Z,5.14
2024-05-09T01:15:41.462Z,5.14
2024-05-09T01:18:13.722Z,5.13
2024-05-09T01:20:44.523Z,5.15
2024-05-09T01:23:15.335Z,5.15
2024-05-09T01:25:46.401Z,5.16
2024-05-09T01:28:15.984Z,5.18
2024-05-09T01:30:43.944Z,5.19
2024-05-09T01:33:12.787Z,5.19
2024-05-09T01:35:42.712Z,5.18
2024-05-09T01:38:13.668Z,5.12
2024-05-09T01:40:43.332Z,5.04
2024-05-09T01:43:12.148Z,4.98
2024-05-09T01:45:41.460Z,4.94
2024-05-09T01:48:11.000Z,4.91
2024-05-09T01:50:42.385Z,4.91
2024-05-09T01:53:13.750Z,4.93
2024-05-09T01:55:42.585Z,4.95
2024-05-09T01:58:10.686Z,5.00
2024-05-09T02:00:42.115Z,5.06
2024-05-09T02:03:15.734Z,5.11
2024-05-09T02:05:47.658Z,5.17
2024-05-09T02:08:21.339Z,5.25
2024-05-09T02:10:50.524Z,5.34
2024-05-09T02:13:18.909Z,5.43
2024-05-09T02:15:46.998Z,5.52
2024-05-09T02:18:15.229Z,5.59
2024-05-09T02:20:43.951Z,5.64
2024-05-09T02:23:12.615Z,5.65
2024-05-09T02:25:43.971Z,5.68
2024-05-09T02:28:12.001Z,5.73
2024-05-09T02:30:41.842Z,5.75
2024-05-09T02:33:12.785Z,5.76
2024-05-09T02:35:43.989Z,5.74
2024-05-09T02:38:13.082Z,5.71
2024-05-09T02:40:41.480Z,5.70
2024-05-09T02:43:12.677Z,5.71
2024-05-09T02:45:41.774Z,5.75
2024-05-09T02:48:12.432Z,5.77
2024-05-09T02:50:41.817Z,5.81
2024-05-09T02:53:14.565Z,5.86
2024-05-09T02:55:43.155Z,5.93
2024-05-09T02:58:11.747Z,6.01
2024-05-09T03:00:41.960Z,6.09
2024-05-09T03:03:14.179Z,6.16
2024-05-09T03:05:45.616Z,6.24
2024-05-09T03:08:14.067Z,6.32
2024-05-09T03:10:42.543Z,6.37
2024-05-09T03:13:13.567Z,6.41
2024-05-09T03:15:43.437Z,6.45
2024-05-09T03:18:11.980Z,6.49
2024-05-09T03:20:41.044Z,6.54
2024-05-09T03:23:10.054Z,6.60
2024-05-09T03:25:38.983Z,6.65
2024-05-09T03:28:07.269Z,6.70
2024-05-09T03:30:40.722Z,6.73
2024-05-09T03:33:17.411Z,6.74
2024-05-09T03:35:49.055Z,6.77
2024-05-09T03:38:17.721Z,6.83
2024-05-09T03:40:47.403Z,6.90
2024-05-09T03:43:15.869Z,6.86
2024-05-09T03:45:44.233Z,6.94
2024-05-09T03:48:12.595Z,6.95
2024-05-09T03:50:41.346Z,6.97
2024-05-09T03:53:13.721Z,6.98
2024-05-09T03:55:42.330Z,6.89
2024-05-09T03:58:13.181Z,6.94
2024-05-09T04:00:42.448Z,6.95
2024-05-09T04:03:12.428Z,6.97
2024-05-09T04:05:42.794Z,6.98
2024-05-09T04:08:15.511Z,7.00
2024-05-09T04:10:43.965Z,7.02
2024-05-09T04:13:12.258Z,6.94
2024-05-09T04:15:40.322Z,7.07
2024-05-09T04:18:08.504Z,7.03
2024-05-09T04:20:39.690Z,7.15
2024-05-09T04:23:14.345Z,7.18
2024-05-09T04:25:44.562Z,7.21
2024-05-09T04:28:14.029Z,7.26
2024-05-09T04:30:42.759Z,7.32
2024-05-09T04:33:13.345Z,7.38
2024-05-09T04:35:43.644Z,7.43
2024-05-09T04:38:12.872Z,7.48
2024-05-09T04:40:41.333Z,7.47
2024-05-09T04:43:17.124Z,7.48
2024-05-09T04:45:45.822Z,7.51
2024-05-09T04:48:13.936Z,7.54
2024-05-09T04:50:42.306Z,7.60
2024-05-09T04:53:15.395Z,7.63
2024-05-09T04:55:43.427Z,7.62
2024-05-09T04:58:11.965Z,7.60
2024-05-09T05:00:41.423Z,7.62
2024-05-09T05:03:13.892Z,7.64
2024-05-09T05:05:45.907Z,7.63
2024-05-09T05:08:19.391Z,7.64
2024-05-09T05:10:48.856Z,7.58
2024-05-09T05:13:20.989Z,7.68
2024-05-09T05:15:55.299Z,7.72
2024-05-09T05:18:23.962Z,7.79
2024-05-09T05:20:52.278Z,7.86
2024-05-09T05:23:21.864Z,7.92
2024-05-09T05:25:52.489Z,8.00
2024-05-09T05:28:21.105Z,8.08
2024-05-09T05:30:49.338Z,8.15
2024-05-09T05:33:22.588Z,8.22
2024-05-09T05:35:51.216Z,8.31
2024-05-09T05:38:21.296Z,8.39
2024-05-09T05:40:50.744Z,8.49
2024-05-09T05:43:19.411Z,8.58
2024-05-09T05:45:47.437Z,8.67
2024-05-09T05:48:17.318Z,8.78
2024-05-09T05:50:46.354Z,8.81
2024-05-09T05:53:14.572Z,8.94
2024-05-09T05:55:42.596Z,8.98
2024-05-09T05:58:11.832Z,8.99
2024-05-09T06:00:41.686Z,9.02
2024-05-09T06:03:12.340Z,9.05
2024-05-09T06:05:43.588Z,9.12
2024-05-09T06:08:12.433Z,9.23
2024-05-09T06:10:41.582Z,9.37
2024-05-09T06:13:10.811Z,9.50
2024-05-09T06:15:40.109Z,9.60
2024-05-09T06:18:10.216Z,9.63
2024-05-09T06:20:41.295Z,9.65
2024-05-09T06:23:10.046Z,9.70
2024-05-09T06:25:38.592Z,9.77
2024-05-09T06:28:06.844Z,9.83
2024-05-09T06:30:40.145Z,9.90
2024-05-09T06:33:12.899Z,9.90
2024-05-09T06:35:43.532Z,10.04
2024-05-09T06:38:11.994Z,10.13
2024-05-09T06:40:42.534Z,10.21
2024-05-09T06:43:13.416Z,10.27
2024-05-09T06:45:41.462Z,10.31
2024-05-09T06:48:10.362Z,10.31
2024-05-09T06:50:40.211Z,10.35
2024-05-09T06:53:09.185Z,10.39
2024-05-09T06:55:38.098Z,10.43
2024-05-09T06:58:11.547Z,10.52
2024-05-09T07:00:41.574Z,10.66
2024-05-09T07:03:13.181Z,10.81
2024-05-09T07:05:47.927Z,10.94
2024-05-09T07:08:18.249Z,11.01
2024-05-09T07:10:46.796Z,11.05
2024-05-09T07:13:15.678Z,11.12
2024-05-09T07:15:43.980Z,11.24
2024-05-09T07:18:15.380Z,11.39
2024-05-09T07:20:43.998Z,11.54
2024-05-09T07:23:12.703Z,11.67
2024-05-09T07:25:41.783Z,11.72
2024-05-09T07:28:17.073Z,11.84
2024-05-09T07:30:45.592Z,11.83
2024-05-09T07:33:18.391Z,11.86
2024-05-09T07:35:46.946Z,11.95
2024-05-09T07:38:14.993Z,12.07
2024-05-09T07:40:43.026Z,12.14
2024-05-09T07:43:14.199Z,12.26
2024-05-09T07:45:51.092Z,12.42
2024-05-09T07:52:39.359Z,12.71
2024-05-09T07:53:49.805Z,12.76
2024-05-09T07:56:22.634Z,12.82
2024-05-09T07:58:56.022Z,12.92
2024-05-09T08:01:26.378Z,13.04
2024-05-09T08:03:55.308Z,13.15
2024-05-09T08:06:23.886Z,13.24
2024-05-09T08:08:52.515Z,13.32
2024-05-09T08:11:20.839Z,13.41
2024-05-09T08:13:48.814Z,13.53
2024-05-09T08:16:16.863Z,13.64
2024-05-09T08:18:44.915Z,13.73
2024-05-09T08:21:12.875Z,13.81
2024-05-09T08:23:40.802Z,13.87
2024-05-09T08:26:09.155Z,13.99
2024-05-09T08:28:36.995Z,14.16
2024-05-09T08:31:06.967Z,14.29
2024-05-09T08:33:35.547Z,14.41
2024-05-09T08:36:03.957Z,14.56
2024-05-09T08:38:31.857Z,14.64
2024-05-09T08:41:03.380Z,14.58
2024-05-09T08:43:31.439Z,14.56
2024-05-09T08:46:00.020Z,14.57
2024-05-09T08:48:29.319Z,14.56
2024-05-09T08:50:59.242Z,14.85
2024-05-09T08:53:27.708Z,15.08
2024-05-09T08:56:00.859Z,15.38
2024-05-09T08:58:33.231Z,15.53
2024-05-09T09:01:03.882Z,15.53
2024-05-09T09:03:33.795Z,15.57
2024-05-09T09:06:06.323Z,15.68
2024-05-09T09:08:34.591Z,15.77
2024-05-09T09:11:02.862Z,16.00
2024-05-09T09:13:30.829Z,16.22
2024-05-09T09:15:59.521Z,16.43
2024-05-09T09:18:30.033Z,16.69
2024-05-09T09:20:58.434Z,16.96
2024-05-09T09:23:29.865Z,17.22
2024-05-09T09:26:01.123Z,17.46
2024-05-09T09:28:29.690Z,17.77
2024-05-09T09:31:04.117Z,18.00
2024-05-09T09:33:32.909Z,18.12
2024-05-09T09:36:06.293Z,18.31
2024-05-09T09:38:40.078Z,18.60
2024-05-09T09:41:10.692Z,18.87
2024-05-09T09:43:42.556Z,19.11
2024-05-09T09:46:12.960Z,19.29
2024-05-09T09:48:42.588Z,19.48
2024-05-09T09:51:10.826Z,19.61
2024-05-09T09:53:39.880Z,19.79
2024-05-09T09:56:10.261Z,20.16
2024-05-09T09:58:40.385Z,20.44
2024-05-09T10:01:09.238Z,20.37
2024-05-09T10:03:37.681Z,20.47
2024-05-09T10:06:08.413Z,20.81
2024-05-09T10:08:37.384Z,20.79
2024-05-09T10:11:06.306Z,20.89
2024-05-09T10:13:34.901Z,21.20
2024-05-09T10:16:12.422Z,21.60
2024-05-09T10:18:41.236Z,21.63
2024-05-09T10:21:19.712Z,21.70
2024-05-09T10:23:59.845Z,21.77
2024-05-09T10:26:34.742Z,21.92
2024-05-09T10:29:16.749Z,22.18
2024-05-09T10:31:46.464Z,22.51
2024-05-09T10:34:22.555Z,22.76
2024-05-09T10:36:52.628Z,22.96
2024-05-09T10:39:21.519Z,22.92
2024-05-09T10:41:49.823Z,22.87
2024-05-09T10:44:18.496Z,22.93
2024-05-09T10:46:46.643Z,23.04
2024-05-09T10:49:14.998Z,22.95
2024-05-09T10:51:45.227Z,22.98
2024-05-09T10:54:13.646Z,22.96
2024-05-09T10:56:42.034Z,23.07
2024-05-09T10:59:12.621Z,23.08
2024-05-09T11:01:40.835Z,23.02
2024-05-09T11:04:09.183Z,23.13
2024-05-09T11:06:38.357Z,23.32
2024-05-09T11:09:06.765Z,23.42
2024-05-09T11:11:34.767Z,23.14
2024-05-09T11:14:14.207Z,22.48
2024-05-09T11:16:42.227Z,22.25
2024-05-09T11:19:14.134Z,22.52
2024-05-09T11:21:42.152Z,22.51
2024-05-09T11:24:11.602Z,22.54
2024-05-09T11:26:39.846Z,22.97
2024-05-09T11:29:07.824Z,23.30
2024-05-09T11:31:47.783Z,23.33
2024-05-09T11:34:15.835Z,23.50
2024-05-09T11:36:43.879Z,23.60
2024-05-09T11:39:11.874Z,23.71
2024-05-09T11:41:39.869Z,23.87
2024-05-09T11:44:07.961Z,24.04
2024-05-09T11:46:35.931Z,24.21
2024-05-09T11:49:04.108Z,24.30
2024-05-09T11:51:32.090Z,24.27
2024-05-09T11:53:59.982Z,24.25
2024-05-09T11:56:28.015Z,24.30
2024-05-09T11:58:56.171Z,24.12
2024-05-09T12:01:27.544Z,23.96
2024-05-09T12:03:56.083Z,23.86
2024-05-09T12:06:24.238Z,23.68
2024-05-09T12:08:52.243Z,23.31
2024-05-09T12:11:20.154Z,23.25
2024-05-09T12:13:48.239Z,23.42
2024-05-09T12:16:16.317Z,23.53
2024-05-09T12:18:44.438Z,23.83
2024-05-09T12:21:16.898Z,23.97
2024-05-09T12:23:44.786Z,24.26
2024-05-09T12:26:12.912Z,24.35
2024-05-09T12:28:41.608Z,24.27
2024-05-09T12:31:09.733Z,24.26
2024-05-09T12:33:37.801Z,24.31
2024-05-09T12:36:06.338Z,24.31
2024-05-09T12:38:34.211Z,24.44
2024-05-09T12:41:02.209Z,24.58
2024-05-09T12:43:30.375Z,24.47
2024-05-09T12:45:58.802Z,24.14
2024-05-09T12:48:27.028Z,23.99
2024-05-09T12:50:57.636Z,24.26
2024-05-09T12:53:25.817Z,24.32
2024-05-09T12:55:59.672Z,24.35
2024-05-09T12:58:29.969Z,24.61
2024-05-09T13:00:58.106Z,24.90
2024-05-09T13:03:26.296Z,24.79
2024-05-09T13:05:54.561Z,24.44
2024-05-09T13:08:22.751Z,24.27
2024-05-09T13:10:51.389Z,24.12
2024-05-09T13:13:19.709Z,24.37
2024-05-09T13:15:47.906Z,24.62
2024-05-09T13:18:15.910Z,24.42
2024-05-09T13:20:44.477Z,23.97
2024-05-09T13:23:12.404Z,23.96
2024-05-09T13:25:40.564Z,24.28
2024-05-09T13:28:08.623Z,24.38
2024-05-09T13:30:40.799Z,24.69
2024-05-09T13:33:12.284Z,24.56
2024-05-09T13:35:47.650Z,24.36
2024-05-09T13:38:20.154Z,24.47
2024-05-09T13:40:49.335Z,24.71
2024-05-09T13:43:18.647Z,24.94
2024-05-09T13:45:47.294Z,25.07
2024-05-09T13:48:15.530Z,25.15
2024-05-09T13:50:43.597Z,25.18
2024-05-09T13:53:11.745Z,25.21
2024-05-09T13:55:40.505Z,25.32
2024-05-09T13:58:09.587Z,25.44
2024-05-09T14:00:46.453Z,25.48
2024-05-09T14:03:19.855Z,25.52
2024-05-09T14:05:51.132Z,25.32
2024-05-09T14:08:22.109Z,25.37
2024-05-09T14:10:51.091Z,25.81
2024-05-09T14:13:20.026Z,25.98
2024-05-09T14:15:48.599Z,26.04
2024-05-09T14:18:17.968Z,26.03
2024-05-09T14:20:45.894Z,26.11
2024-05-09T14:23:14.623Z,26.41
2024-05-09T14:25:43.931Z,26.67
2024-05-09T14:28:13.556Z,26.73
2024-05-09T14:30:42.201Z,26.75
2024-05-09T14:33:11.158Z,26.80
2024-05-09T14:35:39.518Z,26.52
2024-05-09T14:38:08.940Z,26.25
2024-05-09T14:40:42.258Z,26.20
2024-05-09T14:43:13.667Z,26.06
2024-05-09T14:45:43.287Z,25.96
2024-05-09T14:48:15.963Z,26.04
2024-05-09T14:50:44.207Z,25.85
2024-05-09T14:53:13.594Z,25.56
2024-05-09T14:55:43.325Z,25.22
2024-05-09T14:58:12.905Z,25.30
2024-05-09T15:00:46.608Z,25.58
2024-05-09T15:03:19.973Z,25.66
2024-05-09T15:05:49.247Z,25.46
2024-05-09T15:08:18.698Z,24.94
2024-05-09T15:10:50.059Z,24.36
2024-05-09T15:13:20.115Z,23.78
2024-05-09T15:15:48.676Z,23.25
2024-05-09T15:18:17.255Z,22.97
2024-05-09T15:20:45.819Z,22.85
2024-05-09T15:23:14.000Z,22.48
2024-05-09T15:25:44.146Z,22.04
2024-05-09T15:28:12.362Z,21.60
2024-05-09T15:30:42.790Z,21.26
2024-05-09T15:33:13.234Z,20.93
2024-05-09T15:35:41.847Z,20.74
2024-05-09T15:38:10.129Z,20.78
2024-05-09T15:40:40.465Z,20.89
2024-05-09T15:43:10.863Z,21.03
2024-05-09T15:45:41.183Z,20.90
2024-05-09T15:48:10.636Z,20.91
2024-05-09T15:50:41.560Z,20.80
2024-05-09T15:53:13.079Z,20.71
2024-05-09T15:55:42.102Z,20.92
2024-05-09T15:58:10.534Z,21.16
2024-05-09T16:00:42.181Z,21.57
2024-05-09T16:03:13.872Z,22.00
2024-05-09T16:05:45.379Z,22.25
2024-05-09T16:08:14.778Z,22.55
2024-05-09T16:10:45.798Z,22.84
2024-05-09T16:13:15.945Z,23.10
2024-05-09T16:15:44.592Z,23.23
2024-05-09T16:18:13.031Z,23.10
2024-05-09T16:20:42.616Z,22.88
2024-05-09T16:23:12.984Z,22.63
2024-05-09T16:25:46.064Z,22.45
2024-05-09T16:28:14.504Z,22.27
2024-05-09T16:30:42.717Z,22.09
2024-05-09T16:33:12.454Z,21.61
2024-05-09T16:35:40.654Z,21.23
2024-05-09T16:38:08.731Z,20.88
2024-05-09T16:40:40.216Z,20.61
2024-05-09T16:43:12.611Z,20.41
2024-05-09T16:45:44.021Z,20.21
2024-05-09T16:48:13.843Z,19.97
2024-05-09T16:50:42.019Z,19.83
2024-05-09T16:53:09.990Z,19.62
2024-05-09T16:55:38.371Z,19.41
2024-05-09T16:58:08.125Z,19.18
2024-05-09T17:00:41.558Z,18.93
2024-05-09T17:03:15.438Z,18.74
2024-05-09T17:05:48.434Z,18.52
2024-05-09T17:08:19.993Z,18.27
2024-05-09T17:10:49.700Z,18.10
2024-05-09T17:13:19.192Z,17.93
2024-05-09T17:15:48.847Z,17.81
2024-05-09T17:18:17.045Z,17.71
2024-05-09T17:20:45.075Z,17.63
2024-05-09T17:23:13.973Z,17.56
2024-05-09T17:25:43.177Z,17.50
2024-05-09T17:28:11.810Z,17.43
2024-05-09T17:30:41.966Z,17.32
2024-05-09T17:33:12.133Z,17.22
2024-05-09T17:35:41.039Z,17.10
2024-05-09T17:38:09.338Z,17.03
2024-05-09T17:40:38.618Z,16.94
2024-05-09T17:43:09.919Z,16.84
2024-05-09T17:45:40.788Z,16.71
2024-05-09T17:48:11.390Z,16.60
2024-05-09T17:50:41.198Z,16.52
2024-05-09T17:53:10.717Z,16.44
2024-05-09T17:55:39.756Z,16.37
2024-05-09T17:58:08.280Z,16.28
2024-05-09T18:00:39.990Z,16.19
2024-05-09T18:03:12.053Z,16.12
2024-05-09T18:05:43.513Z,16.03
2024-05-09T18:08:13.625Z,15.96
2024-05-09T18:10:42.498Z,15.88
2024-05-09T18:13:12.203Z,15.76
2024-05-09T18:15:41.086Z,15.65
2024-05-09T18:18:10.409Z,15.60
2024-05-09T18:20:43.783Z,15.54
2024-05-09T18:23:16.418Z,15.41
2024-05-09T18:25:47.279Z,15.44
2024-05-09T18:28:16.834Z,15.40
2024-05-09T18:30:45.600Z,15.39
2024-05-09T18:33:13.924Z,15.34
2024-05-09T18:35:43.737Z,15.31
2024-05-09T18:38:11.775Z,15.29
2024-05-09T18:40:41.698Z,15.27
2024-05-09T18:43:11.542Z,15.25
2024-05-09T18:45:39.899Z,15.21
2024-05-09T18:48:09.660Z,15.17
2024-05-09T18:50:40.329Z,15.13
2024-05-09T18:53:11.756Z,15.13
2024-05-09T18:55:43.643Z,15.04
2024-05-09T18:58:11.886Z,14.96
2024-05-09T19:00:42.645Z,14.91
2024-05-09T19:03:14.504Z,14.80
2024-05-09T19:05:44.965Z,14.76
2024-05-09T19:08:15.161Z,14.75
2024-05-09T19:10:45.323Z,14.74
2024-05-09T19:13:14.611Z,14.67
2024-05-09T19:15:43.866Z,14.57
2024-05-09T19:18:14.131Z,14.45
2024-05-09T19:20:43.609Z,14.35
2024-05-09T19:23:12.169Z,14.29
2024-05-09T19:25:40.316Z,14.24
2024-05-09T19:28:08.616Z,14.21
2024-05-09T19:30:40.892Z,14.23
2024-05-09T19:33:13.044Z,14.27
2024-05-09T19:35:43.123Z,14.28
2024-05-09T19:38:12.052Z,14.24
2024-05-09T19:40:40.450Z,14.24
2024-05-09T19:43:08.996Z,14.27
2024-05-09T19:45:37.298Z,14.32
2024-05-09T19:48:06.552Z,14.25
2024-05-09T19:50:41.630Z,14.28
2024-05-09T19:53:14.268Z,14.24
2024-05-09T19:55:43.187Z,14.21
2024-05-09T19:58:12.250Z,14.18
2024-05-09T20:00:43.132Z,14.16
2024-05-09T20:03:14.983Z,14.15
2024-05-09T20:05:46.489Z,14.15
2024-05-09T20:08:15.136Z,14.13
2024-05-09T20:10:43.589Z,14.12
2024-05-09T20:13:11.681Z,14.10
2024-05-09T20:15:40.058Z,14.09
2024-05-09T20:18:08.334Z,14.06
2024-05-09T20:20:40.380Z,14.03
2024-05-09T20:23:11.773Z,14.00
2024-05-09T20:25:40.308Z,13.98
2024-05-09T20:28:08.358Z,13.98
2024-05-09T20:30:36.783Z,13.97
2024-05-09T20:33:09.587Z,13.88
2024-05-09T20:35:38.525Z,13.95
2024-05-09T20:38:06.884Z,13.88
2024-05-09T20:40:37.903Z,13.85
2024-05-09T20:43:09.280Z,13.85
2024-05-09T20:45:38.117Z,13.85
2024-05-09T20:48:07.313Z,13.80
2024-05-09T20:50:39.738Z,13.77
2024-05-09T20:53:11.969Z,13.75
2024-05-09T20:55:40.868Z,13.70
2024-05-09T20:58:09.610Z,13.69
2024-05-09T21:00:41.938Z,13.66
2024-05-09T21:03:14.580Z,13.64
2024-05-09T21:05:44.396Z,13.56
2024-05-09T21:08:12.516Z,13.49
2024-05-09T21:10:40.526Z,13.45
2024-05-09T21:13:08.615Z,13.46
2024-05-09T21:15:36.780Z,13.48
2024-05-09T21:18:05.358Z,13.47
2024-05-09T21:20:34.790Z,13.40
2024-05-09T21:23:03.739Z,13.38
2024-05-09T21:25:32.373Z,13.30
2024-05-09T21:28:00.902Z,13.18
2024-05-09T21:30:38.491Z,13.11
2024-05-09T21:33:12.660Z,13.02
2024-05-09T21:35:43.537Z,13.01
2024-05-09T21:38:13.501Z,12.92
2024-05-09T21:40:42.841Z,13.01
2024-05-09T21:43:10.966Z,12.99
2024-05-09T21:45:38.936Z,13.02
2024-05-09T21:48:07.661Z,13.03
2024-05-09T21:50:40.101Z,13.06
2024-05-09T21:53:11.792Z,13.05
2024-05-09T21:55:40.460Z,13.04
2024-05-09T21:58:08.509Z,13.02
2024-05-09T22:00:42.371Z,13.02
2024-05-09T22:03:11.871Z,12.98
2024-05-09T22:05:43.374Z,12.98
2024-05-09T22:08:11.458Z,12.99
2024-05-09T22:10:39.520Z,12.98
2024-05-09T22:13:08.535Z,12.97
2024-05-09T22:15:39.331Z,12.99
2024-05-09T22:18:10.238Z,12.99
2024-05-09T22:20:46.716Z,13.00
2024-05-09T22:23:15.873Z,13.00
2024-05-09T22:25:44.141Z,13.01
2024-05-09T22:28:15.103Z,12.99
2024-05-09T22:30:45.640Z,12.98
2024-05-09T22:33:14.859Z,12.98
2024-05-09T22:35:42.996Z,12.96
2024-05-09T22:38:10.997Z,12.95
2024-05-09T22:40:46.899Z,12.96
2024-05-09T22:43:23.231Z,12.96
2024-05-09T22:45:54.875Z,12.95
2024-05-09T22:48:24.787Z,12.93
2024-05-09T22:50:54.072Z,12.91
2024-05-09T22:53:26.094Z,12.87
2024-05-09T22:55:54.537Z,12.87
2024-05-09T22:58:23.602Z,12.86
2024-05-09T23:00:52.282Z,12.86
2024-05-09T23:03:21.889Z,12.85
2024-05-09T23:05:51.917Z,12.80
2024-05-09T23:08:19.822Z,12.77
2024-05-09T23:10:47.770Z,12.74
2024-05-09T23:13:16.051Z,12.72
2024-05-09T23:15:44.217Z,12.72
2024-05-09T23:18:12.204Z,12.72
2024-05-09T23:20:40.563Z,12.72
2024-05-09T23:23:10.031Z,12.71
2024-05-09T23:25:41.341Z,12.70
2024-05-09T23:28:10.619Z,12.65
2024-05-09T23:30:40.811Z,12.61
2024-05-09T23:33:12.100Z,12.58
2024-05-09T23:35:44.446Z,12.46
2024-05-09T23:38:13.476Z,12.49
2024-05-09T23:40:42.837Z,12.46
2024-05-09T23:43:12.781Z,12.43
2024-05-09T23:45:42.491Z,12.39
2024-05-09T23:48:11.152Z,12.36
2024-05-09T23:50:40.490Z,12.26
2024-05-09T23:53:10.079Z,12.31
2024-05-09T23:55:39.151Z,12.26
2024-05-09T23:58:08.530Z,12.22
